Time;durP1;ratioP1;P1;durP2;ratioP2;P2;SDS_P1;SDS_P2;PMS_P1;PMS_P2;Temp;Humidity;BMP_temperature;BMP_pressure;BME280_temperature;BME280_humidity;BME280_pressure;Samples;Min_cycle;Max_cycle;Signal;HPM_P1;HPM_P2
2023/05/27 00:00:18;;;;;;;16.42;4.25;;;7.10;99.90;;;;;;5099278;28;20067;-70
2023/05/27 00:02:44;;;;;;;12.65;3.75;;;7.10;99.90;;;;;;5100870;28;20047;-70
2023/05/27 00:05:10;;;;;;;12.73;4.00;;;7.00;99.90;;;;;;5096109;28;20040;-72
2023/05/27 00:07:36;;;;;;;14.23;4.13;;;7.40;99.90;;;;;;5080103;28;20514;-73
2023/05/27 00:10:01;;;;;;;10.70;4.20;;;6.90;99.90;;;;;;5084848;28;20083;-70
2023/05/27 00:12:28;;;;;;;20.13;4.30;;;6.70;99.90;;;;;;5102151;28;20114;-71
2023/05/27 00:14:53;;;;;;;14.93;3.85;;;6.70;99.90;;;;;;5093321;28;20076;-72
2023/05/27 00:17:19;;;;;;;13.13;3.90;;;6.80;99.90;;;;;;5097088;28;20133;-72
2023/05/27 00:19:47;;;;;;;12.73;4.10;;;7.10;99.90;;;;;;5097853;28;20764;-72
2023/05/27 00:22:13;;;;;;;12.85;4.18;;;6.70;99.90;;;;;;5101257;28;20494;-73
2023/05/27 00:24:41;;;;;;;14.35;4.68;;;6.60;99.90;;;;;;5078865;28;20040;-70
2023/05/27 00:27:07;;;;;;;15.00;4.20;;;6.60;99.90;;;;;;5098312;28;20490;-74
2023/05/27 00:29:33;;;;;;;13.73;3.47;;;6.60;99.90;;;;;;5080196;28;20074;-71
2023/05/27 00:32:02;;;;;;;12.20;4.35;;;6.50;99.90;;;;;;5098657;28;20084;-70
2023/05/27 00:34:28;;;;;;;14.80;4.38;;;6.50;99.90;;;;;;5085475;28;20040;-73
2023/05/27 00:36:54;;;;;;;12.85;3.92;;;6.50;99.90;;;;;;5091765;28;20052;-70
2023/05/27 00:39:20;;;;;;;12.40;3.67;;;6.60;99.90;;;;;;5099984;28;20051;-72
2023/05/27 00:41:50;;;;;;;15.55;4.60;;;6.50;99.90;;;;;;5101501;28;20035;-73
2023/05/27 00:44:16;;;;;;;14.07;4.30;;;6.50;99.90;;;;;;5101231;28;20054;-72
2023/05/27 00:46:43;;;;;;;15.07;3.72;;;6.50;99.90;;;;;;5091226;28;20486;-72
2023/05/27 00:49:09;;;;;;;13.48;4.35;;;6.40;99.90;;;;;;5098483;28;20048;-71
2023/05/27 00:51:35;;;;;;;11.77;4.10;;;6.50;99.90;;;;;;5100434;28;20044;-72
2023/05/27 00:54:00;;;;;;;10.88;3.50;;;6.30;99.90;;;;;;5101498;28;20512;-73
2023/05/27 00:56:26;;;;;;;9.48;3.53;;;6.30;99.90;;;;;;5098282;28;20543;-71
2023/05/27 00:58:52;;;;;;;10.43;3.58;;;6.30;99.90;;;;;;5093089;28;20084;-70
2023/05/27 01:01:19;;;;;;;8.35;3.08;;;6.20;99.90;;;;;;5101191;28;20051;-73
2023/05/27 01:03:47;;;;;;;8.68;3.28;;;6.20;99.90;;;;;;5099732;28;20703;-73
2023/05/27 01:06:18;;;;;;;13.75;3.55;;;6.20;99.90;;;;;;5094737;28;20047;-71
2023/05/27 01:09:00;;;;;;;13.65;3.45;;;6.20;99.90;;;;;;5100017;28;20483;-71
2023/05/27 01:11:34;;;;;;;10.00;3.40;;;6.10;99.90;;;;;;5080358;28;20067;-70
2023/05/27 01:14:06;;;;;;;13.32;4.38;;;6.10;99.90;;;;;;5100459;28;20860;-71
2023/05/27 01:16:34;;;;;;;16.02;4.43;;;6.10;99.90;;;;;;5094293;28;20047;-73
2023/05/27 01:19:02;;;;;;;18.17;4.25;;;6.20;99.90;;;;;;5097843;28;20056;-72
2023/05/27 01:21:30;;;;;;;10.80;4.13;;;6.10;99.90;;;;;;5097970;28;20488;-71
2023/05/27 01:24:03;;;;;;;11.65;4.20;;;6.00;99.90;;;;;;5082185;28;20040;-71
2023/05/27 01:26:28;;;;;;;15.52;4.10;;;6.00;99.90;;;;;;5095286;28;20509;-72
2023/05/27 01:28:54;;;;;;;14.20;4.00;;;6.00;99.90;;;;;;5098075;28;20040;-71
2023/05/27 01:31:28;;;;;;;11.73;4.25;;;5.90;99.90;;;;;;5085149;28;20051;-71
2023/05/27 01:34:06;;;;;;;17.02;4.20;;;5.80;99.90;;;;;;5100910;28;20083;-71
2023/05/27 01:36:40;;;;;;;10.68;3.90;;;5.80;99.90;;;;;;5086955;28;20051;-70
2023/05/27 01:39:11;;;;;;;17.88;4.40;;;5.80;99.90;;;;;;5101464;28;20406;-72
2023/05/27 01:41:38;;;;;;;13.02;3.92;;;5.80;99.90;;;;;;5095895;28;20398;-73
2023/05/27 01:44:04;;;;;;;12.50;4.22;;;5.80;99.90;;;;;;5097598;28;20040;-71
2023/05/27 01:46:30;;;;;;;14.30;4.13;;;5.70;99.90;;;;;;5085532;28;20105;-72
2023/05/27 01:48:55;;;;;;;15.65;4.22;;;5.70;99.90;;;;;;5101623;28;20035;-74
2023/05/27 01:51:21;;;;;;;14.45;4.38;;;5.70;99.90;;;;;;5096229;28;20048;-71
2023/05/27 01:53:47;;;;;;;11.35;4.30;;;5.70;99.90;;;;;;5083214;28;20376;-71
2023/05/27 01:56:12;;;;;;;12.70;3.97;;;5.70;99.90;;;;;;5101122;28;20079;-72
2023/05/27 01:58:38;;;;;;;14.02;3.85;;;5.70;99.90;;;;;;5100998;28;20048;-72
2023/05/27 02:01:05;;;;;;;13.63;4.45;;;5.80;99.90;;;;;;5098457;28;20084;-71
2023/05/27 02:03:31;;;;;;;17.98;4.45;;;5.70;99.90;;;;;;5101312;28;20168;-72
2023/05/27 02:05:56;;;;;;;14.52;4.28;;;5.80;99.90;;;;;;5101933;28;20150;-73
2023/05/27 02:08:22;;;;;;;15.93;3.95;;;5.70;99.90;;;;;;5101302;28;20475;-73
2023/05/27 02:10:48;;;;;;;12.27;4.57;;;5.70;99.90;;;;;;5093326;28;20051;-73
2023/05/27 02:13:14;;;;;;;11.10;4.20;;;5.70;99.90;;;;;;5087124;28;20040;-74
2023/05/27 02:15:40;;;;;;;11.13;3.65;;;5.70;99.90;;;;;;5097575;28;20043;-73
2023/05/27 02:18:06;;;;;;;11.45;4.03;;;5.70;99.90;;;;;;5092157;28;20063;-72
2023/05/27 02:20:31;;;;;;;15.15;4.43;;;5.60;99.90;;;;;;5092205;28;20772;-73
2023/05/27 02:22:57;;;;;;;19.20;4.18;;;5.60;99.90;;;;;;5093463;28;20046;-73
2023/05/27 02:25:23;;;;;;;14.88;4.45;;;6.30;99.90;;;;;;5078128;28;20492;-74
2023/05/27 02:27:50;;;;;;;16.75;4.95;;;5.60;99.90;;;;;;5082697;28;20039;-74
2023/05/27 02:30:16;;;;;;;13.05;4.30;;;5.60;99.90;;;;;;5100467;28;20047;-73
2023/05/27 02:32:42;;;;;;;13.10;4.32;;;5.60;99.90;;;;;;5083698;28;20055;-72
2023/05/27 02:35:08;;;;;;;14.48;4.13;;;5.60;99.90;;;;;;5100624;28;20040;-71
2023/05/27 02:37:34;;;;;;;16.30;4.05;;;5.70;99.90;;;;;;5081829;28;20101;-72
2023/05/27 02:40:00;;;;;;;14.02;4.63;;;5.60;99.90;;;;;;5080071;28;20049;-73
2023/05/27 02:42:25;;;;;;;12.10;3.83;;;5.70;99.90;;;;;;5090119;28;20047;-72
2023/05/27 02:44:51;;;;;;;16.88;4.20;;;5.70;99.90;;;;;;5100751;28;20083;-71
2023/05/27 02:47:17;;;;;;;15.25;4.13;;;5.70;99.90;;;;;;5100998;28;20467;-72
2023/05/27 02:49:42;;;;;;;14.77;3.60;;;5.70;99.90;;;;;;5103741;28;20056;-72
2023/05/27 02:52:08;;;;;;;12.45;4.45;;;5.70;99.90;;;;;;5096209;28;20059;-71
2023/05/27 02:54:33;;;;;;;18.00;4.50;;;5.80;99.90;;;;;;5100337;28;20081;-72
2023/05/27 02:56:59;;;;;;;14.23;4.68;;;5.70;99.90;;;;;;5100293;28;20111;-72
2023/05/27 02:59:25;;;;;;;17.23;4.72;;;5.70;99.90;;;;;;5099886;28;20083;-72
2023/05/27 03:01:50;;;;;;;11.25;4.07;;;5.70;99.90;;;;;;5092972;28;20047;-73
2023/05/27 03:04:16;;;;;;;10.82;4.35;;;5.70;99.90;;;;;;5098502;28;20032;-71
2023/05/27 03:06:42;;;;;;;11.45;4.30;;;5.80;99.90;;;;;;5094676;28;20079;-74
2023/05/27 03:09:07;;;;;;;14.98;4.15;;;5.80;99.90;;;;;;5081034;28;20143;-75
2023/05/27 03:11:33;;;;;;;11.05;3.90;;;5.80;99.90;;;;;;5099453;28;20066;-73
2023/05/27 03:13:59;;;;;;;11.98;3.67;;;5.80;99.90;;;;;;5091134;28;20040;-71
2023/05/27 03:16:25;;;;;;;11.60;3.85;;;6.20;99.90;;;;;;5081713;28;20056;-71
2023/05/27 03:18:50;;;;;;;9.50;3.75;;;5.90;99.90;;;;;;5100638;28;20348;-73
2023/05/27 03:21:16;;;;;;;10.82;4.28;;;5.90;99.90;;;;;;5103053;28;20474;-73
2023/05/27 03:23:42;;;;;;;16.25;4.40;;;5.90;99.90;;;;;;5092068;28;20047;-71
2023/05/27 03:26:07;;;;;;;13.30;4.72;;;5.90;99.90;;;;;;5099969;28;20104;-71
2023/05/27 03:28:33;;;;;;;13.45;4.20;;;6.00;99.90;;;;;;5099371;28;20044;-72
2023/05/27 03:30:58;;;;;;;14.43;4.40;;;6.00;99.90;;;;;;5091009;28;20048;-72
2023/05/27 03:33:24;;;;;;;14.70;4.40;;;6.10;99.90;;;;;;5080840;28;20044;-73
2023/05/27 03:35:50;;;;;;;13.63;4.30;;;6.10;99.90;;;;;;5097943;28;20490;-72
2023/05/27 03:38:16;;;;;;;19.27;4.68;;;6.10;99.90;;;;;;5100265;28;20458;-72
2023/05/27 03:40:41;;;;;;;12.25;4.47;;;6.20;99.90;;;;;;5081056;28;20051;-72
2023/05/27 03:43:07;;;;;;;13.43;4.18;;;6.20;99.90;;;;;;5098420;28;20033;-73
2023/05/27 03:45:33;;;;;;;13.57;4.68;;;6.20;99.90;;;;;;5097369;28;20039;-71
2023/05/27 03:47:58;;;;;;;12.98;4.22;;;6.30;99.90;;;;;;5102570;28;20114;-75
2023/05/27 03:50:24;;;;;;;12.32;4.13;;;6.30;99.90;;;;;;5101277;28;20043;-71
2023/05/27 03:52:49;;;;;;;14.00;4.60;;;6.40;99.90;;;;;;5099045;28;20043;-71
2023/05/27 03:55:20;;;;;;;16.73;4.63;;;6.50;99.90;;;;;;5092467;28;20047;-72
2023/05/27 03:57:46;;;;;;;13.10;4.45;;;6.50;99.90;;;;;;5085799;28;20055;-72
2023/05/27 04:00:12;;;;;;;12.77;4.80;;;6.50;99.90;;;;;;5102114;28;20051;-71
2023/05/27 04:02:39;;;;;;;11.00;4.20;;;6.60;99.90;;;;;;5100875;28;20092;-71
2023/05/27 04:05:04;;;;;;;15.45;5.03;;;6.70;99.90;;;;;;5094681;28;20376;-73
2023/05/27 04:07:31;;;;;;;14.23;4.25;;;6.70;99.90;;;;;;5081259;28;20059;-74
2023/05/27 04:09:57;;;;;;;15.18;3.65;;;6.80;99.90;;;;;;5074231;28;20519;-71
2023/05/27 04:12:23;;;;;;;19.85;4.82;;;6.90;99.90;;;;;;5098887;28;20135;-73
2023/05/27 04:14:49;;;;;;;14.43;4.60;;;7.00;99.90;;;;;;5098613;28;20127;-75
2023/05/27 04:17:15;;;;;;;16.48;4.43;;;7.10;99.90;;;;;;5094894;28;20083;-72
2023/05/27 04:19:41;;;;;;;15.27;4.80;;;7.20;99.90;;;;;;5102135;28;20078;-70
2023/05/27 04:22:07;;;;;;;13.57;4.35;;;7.20;99.90;;;;;;5098935;28;20085;-74
2023/05/27 04:24:32;;;;;;;13.73;4.43;;;7.30;99.90;;;;;;5094616;28;20032;-72
2023/05/27 04:26:59;;;;;;;21.23;5.18;;;7.40;99.90;;;;;;5093844;28;20040;-72
2023/05/27 04:29:25;;;;;;;18.25;4.65;;;7.50;99.90;;;;;;5098523;28;20448;-72
2023/05/27 04:31:50;;;;;;;15.20;4.53;;;7.50;99.90;;;;;;5098823;28;20044;-72
2023/05/27 04:34:16;;;;;;;14.95;4.25;;;7.60;99.90;;;;;;5101118;28;20039;-71
2023/05/27 04:36:43;;;;;;;18.58;4.28;;;7.80;99.90;;;;;;5086612;28;20100;-72
2023/05/27 04:39:10;;;;;;;13.50;3.72;;;7.70;99.90;;;;;;5090530;28;20048;-71
2023/05/27 04:41:36;;;;;;;22.73;4.82;;;7.80;99.90;;;;;;5102150;28;20402;-72
2023/05/27 04:44:02;;;;;;;18.75;4.05;;;7.80;99.90;;;;;;5091245;28;20056;-72
2023/05/27 04:46:28;;;;;;;20.05;4.72;;;7.90;99.90;;;;;;5100565;28;20043;-72
2023/05/27 04:48:53;;;;;;;16.98;4.20;;;7.90;99.90;;;;;;5094478;28;20035;-71
2023/05/27 04:51:19;;;;;;;25.40;4.78;;;8.00;99.90;;;;;;5079464;28;20469;-71
2023/05/27 04:53:47;;;;;;;18.67;4.90;;;8.00;99.90;;;;;;5106273;28;20115;-71
2023/05/27 04:56:15;;;;;;;17.17;3.88;;;8.10;99.90;;;;;;5098500;28;20055;-71
2023/05/27 04:58:42;;;;;;;25.52;5.15;;;8.20;99.90;;;;;;5097780;28;20036;-71
2023/05/27 05:01:16;;;;;;;19.67;4.75;;;8.20;99.90;;;;;;5097776;28;20087;-71
2023/05/27 05:06:30;;;;;;;20.10;4.78;;;8.20;99.90;;;;;;5097823;28;20044;-73
2023/05/27 05:08:56;;;;;;;12.25;3.85;;;8.30;99.90;;;;;;5075261;28;20062;-72
2023/05/27 05:11:22;;;;;;;25.13;4.70;;;8.60;99.90;;;;;;5098215;28;20047;-72
2023/05/27 05:13:47;;;;;;;25.48;5.05;;;8.30;99.90;;;;;;5094718;28;20062;-73
2023/05/27 05:16:13;;;;;;;24.67;4.55;;;8.60;99.90;;;;;;5101204;28;20122;-72
2023/05/27 05:18:38;;;;;;;20.25;4.80;;;8.40;99.90;;;;;;5101853;28;20039;-72
2023/05/27 05:21:04;;;;;;;26.05;5.10;;;8.50;99.90;;;;;;5092394;28;20043;-73
2023/05/27 05:23:30;;;;;;;18.40;4.57;;;8.40;99.90;;;;;;5079810;28;20501;-73
2023/05/27 05:25:58;;;;;;;27.45;4.82;;;8.50;99.90;;;;;;5097930;28;20486;-72
2023/05/27 05:28:24;;;;;;;16.08;4.53;;;8.50;99.90;;;;;;5098507;28;20036;-72
2023/05/27 05:30:50;;;;;;;17.45;4.28;;;8.60;99.90;;;;;;5094568;28;20431;-73
2023/05/27 05:33:15;;;;;;;20.27;4.53;;;8.60;99.90;;;;;;5100345;28;20491;-75
2023/05/27 05:35:41;;;;;;;19.35;5.40;;;8.60;99.90;;;;;;5101244;28;20039;-73
2023/05/27 05:38:07;;;;;;;20.02;4.28;;;8.60;99.90;;;;;;5091759;28;20454;-72
2023/05/27 05:40:32;;;;;;;21.50;4.32;;;8.90;99.90;;;;;;5098038;28;20487;-71
2023/05/27 05:42:58;;;;;;;15.25;4.72;;;8.80;99.90;;;;;;5096764;28;20048;-76
2023/05/27 05:45:25;;;;;;;18.90;4.65;;;8.80;99.90;;;;;;5099313;28;20048;-74
2023/05/27 05:47:50;;;;;;;17.67;4.18;;;8.90;99.90;;;;;;5062354;28;20135;-72
2023/05/27 05:50:16;;;;;;;19.30;5.35;;;9.00;99.90;;;;;;5098008;28;20132;-73
2023/05/27 05:52:42;;;;;;;20.70;4.70;;;9.10;99.90;;;;;;5092142;28;20475;-72
2023/05/27 05:55:08;;;;;;;17.58;4.53;;;9.20;99.90;;;;;;5096429;28;20039;-73
2023/05/27 05:57:33;;;;;;;21.92;5.50;;;9.30;99.90;;;;;;5099809;28;20036;-75
2023/05/27 05:59:59;;;;;;;26.80;5.05;;;9.40;99.90;;;;;;5098156;28;20052;-72
2023/05/27 06:02:25;;;;;;;19.10;4.50;;;9.60;99.90;;;;;;5095870;28;20482;-72
2023/05/27 06:04:51;;;;;;;17.95;4.65;;;9.90;99.90;;;;;;5097897;28;20248;-73
2023/05/27 06:07:17;;;;;;;20.58;4.68;;;9.80;99.90;;;;;;5098022;28;20442;-74
2023/05/27 06:09:42;;;;;;;20.75;4.28;;;9.90;99.90;;;;;;5093231;28;20182;-72
2023/05/27 06:12:08;;;;;;;18.35;4.43;;;10.10;99.90;;;;;;5098580;28;20055;-74
2023/05/27 06:14:34;;;;;;;23.85;4.38;;;10.30;99.90;;;;;;5097267;28;20035;-74
2023/05/27 06:17:00;;;;;;;21.05;4.05;;;10.40;99.90;;;;;;5099009;28;20063;-72
2023/05/27 06:19:25;;;;;;;17.67;3.88;;;10.50;99.90;;;;;;5101048;28;20043;-72
2023/05/27 06:21:51;;;;;;;18.02;4.10;;;11.00;99.90;;;;;;5093040;28;20036;-73
2023/05/27 06:24:19;;;;;;;25.52;4.78;;;10.70;99.90;;;;;;5101480;28;20051;-71
2023/05/27 06:26:44;;;;;;;19.00;3.85;;;10.90;99.90;;;;;;5084238;28;20051;-75
2023/05/27 06:29:10;;;;;;;21.45;4.40;;;11.00;99.90;;;;;;5088482;28;20068;-72
2023/05/27 06:31:36;;;;;;;25.20;4.88;;;11.20;99.90;;;;;;5092471;28;20047;-72
2023/05/27 06:34:02;;;;;;;20.08;4.40;;;11.40;99.90;;;;;;5100780;28;20483;-75
2023/05/27 06:36:27;;;;;;;25.23;4.95;;;11.50;99.90;;;;;;5101088;28;20051;-73
2023/05/27 06:38:53;;;;;;;19.67;4.00;;;11.60;99.90;;;;;;5082181;28;20036;-72
2023/05/27 06:41:19;;;;;;;20.52;4.82;;;11.80;99.90;;;;;;5101385;28;20410;-71
2023/05/27 06:43:45;;;;;;;22.17;4.75;;;12.00;99.90;;;;;;5097151;28;20040;-71
2023/05/27 06:46:10;;;;;;;24.35;4.70;;;12.10;99.90;;;;;;5100781;28;20053;-73
2023/05/27 06:48:36;;;;;;;19.95;4.00;;;12.30;99.90;;;;;;5086717;28;20046;-73
2023/05/27 06:51:02;;;;;;;14.98;3.40;;;12.40;99.90;;;;;;5104123;28;20051;-74
2023/05/27 06:53:27;;;;;;;20.52;4.00;;;12.60;99.90;;;;;;5075781;28;20044;-73
2023/05/27 06:55:53;;;;;;;22.70;4.13;;;12.70;99.90;;;;;;5065335;28;20123;-72
2023/05/27 06:58:19;;;;;;;21.13;5.07;;;12.90;99.90;;;;;;5082868;28;20552;-72
2023/05/27 07:00:45;;;;;;;18.10;4.50;;;13.10;99.90;;;;;;5099230;28;20067;-72
2023/05/27 07:03:10;;;;;;;18.45;4.43;;;13.60;99.90;;;;;;5100793;28;20459;-72
2023/05/27 07:05:36;;;;;;;21.08;4.45;;;13.30;99.90;;;;;;5099842;28;20063;-72
2023/05/27 07:08:02;;;;;;;20.23;4.22;;;13.60;99.90;;;;;;5100110;28;20059;-77
2023/05/27 07:10:27;;;;;;;21.15;5.20;;;13.70;99.90;;;;;;5099069;28;20051;-73
2023/05/27 07:12:53;;;;;;;22.17;5.05;;;13.70;99.90;;;;;;5083928;28;20044;-73
2023/05/27 07:15:19;;;;;;;25.48;4.72;;;14.00;99.90;;;;;;5081322;28;20047;-72
2023/05/27 07:17:45;;;;;;;22.75;4.93;;;14.20;99.90;;;;;;5096629;28;20063;-73
2023/05/27 07:20:11;;;;;;;16.35;3.75;;;14.30;99.90;;;;;;5103181;28;20118;-71
2023/05/27 07:22:37;;;;;;;23.70;4.97;;;14.50;99.90;;;;;;5095737;28;20044;-72
2023/05/27 07:25:03;;;;;;;23.20;4.85;;;14.70;99.90;;;;;;5081380;28;20048;-72
2023/05/27 07:27:29;;;;;;;16.65;4.20;;;14.70;99.90;;;;;;5099811;28;20040;-71
2023/05/27 07:29:54;;;;;;;20.58;4.70;;;14.80;99.90;;;;;;5099639;28;20066;-71
2023/05/27 07:32:21;;;;;;;19.35;4.43;;;14.80;99.90;;;;;;5080837;28;20494;-71
2023/05/27 07:34:47;;;;;;;26.67;5.47;;;14.90;99.90;;;;;;5098122;28;20051;-71
2023/05/27 07:37:13;;;;;;;19.35;5.40;;;14.90;99.90;;;;;;5100831;28;20043;-71
2023/05/27 07:39:38;;;;;;;21.35;5.18;;;14.90;99.90;;;;;;5100116;28;20040;-70
2023/05/27 07:42:05;;;;;;;19.42;4.82;;;15.10;99.90;;;;;;5099762;28;20407;-73
2023/05/27 07:44:30;;;;;;;21.00;4.85;;;15.00;99.90;;;;;;5083896;28;20040;-73
2023/05/27 07:46:56;;;;;;;23.20;4.57;;;15.20;99.90;;;;;;5097705;28;20043;-71
2023/05/27 07:49:22;;;;;;;17.50;3.85;;;15.20;99.90;;;;;;5100508;28;20127;-71
2023/05/27 07:51:47;;;;;;;22.45;4.72;;;15.50;99.90;;;;;;5080233;28;20043;-71
2023/05/27 07:54:13;;;;;;;22.33;4.82;;;15.90;99.90;;;;;;5099153;28;20115;-71
2023/05/27 07:56:39;;;;;;;25.77;5.18;;;16.00;99.90;;;;;;5080816;28;20056;-72
2023/05/27 07:59:05;;;;;;;22.15;4.40;;;15.90;99.90;;;;;;5087089;28;20044;-73
2023/05/27 08:01:32;;;;;;;20.42;4.43;;;16.10;99.90;;;;;;5098861;28;20083;-74
2023/05/27 08:04:01;;;;;;;19.88;5.85;;;16.20;99.90;;;;;;5094482;28;20494;-72
2023/05/27 08:06:27;;;;;;;21.35;4.72;;;16.30;99.90;;;;;;5080323;28;20058;-71
2023/05/27 08:08:52;;;;;;;20.50;5.13;;;16.50;99.90;;;;;;5102003;28;20043;-74
2023/05/27 08:11:18;;;;;;;19.83;4.35;;;16.50;99.90;;;;;;5102179;28;20051;-73
2023/05/27 08:13:44;;;;;;;16.02;3.97;;;16.70;99.90;;;;;;5097825;28;20474;-71
2023/05/27 08:16:10;;;;;;;17.83;4.57;;;16.80;99.90;;;;;;5091327;28;20040;-72
2023/05/27 08:18:37;;;;;;;21.70;4.97;;;17.00;99.90;;;;;;5098583;28;20043;-75
2023/05/27 08:21:02;;;;;;;17.42;4.93;;;16.90;99.90;;;;;;5093442;28;20123;-76
2023/05/27 08:23:28;;;;;;;19.02;4.40;;;16.90;99.90;;;;;;5093868;28;20468;-69
2023/05/27 08:25:54;;;;;;;17.05;4.13;;;17.00;99.90;;;;;;5090331;28;20047;-74
2023/05/27 08:28:19;;;;;;;20.65;4.57;;;17.10;99.90;;;;;;5080311;28;20047;-72
2023/05/27 08:30:46;;;;;;;15.98;4.97;;;17.20;99.90;;;;;;5098893;28;20543;-74
2023/05/27 08:33:12;;;;;;;17.75;4.18;;;17.50;99.90;;;;;;5082478;28;20048;-72
2023/05/27 08:35:37;;;;;;;23.25;5.13;;;17.60;99.90;;;;;;5101859;28;20036;-73
2023/05/27 08:38:03;;;;;;;21.58;5.40;;;17.80;99.90;;;;;;5092668;28;20071;-73
2023/05/27 08:40:29;;;;;;;22.40;5.20;;;17.80;99.90;;;;;;5100917;28;20858;-75
2023/05/27 08:42:55;;;;;;;17.10;4.70;;;18.00;99.90;;;;;;5101988;28;20039;-72
2023/05/27 08:45:22;;;;;;;20.23;4.72;;;18.20;99.90;;;;;;5091176;28;20047;-72
2023/05/27 08:47:49;;;;;;;17.95;5.25;;;18.10;99.90;;;;;;5080397;28;20089;-74
2023/05/27 08:50:14;;;;;;;19.40;4.32;;;18.10;99.90;;;;;;5098338;28;20050;-72
2023/05/27 08:52:48;;;;;;;22.42;4.45;;;18.50;99.90;;;;;;5101368;28;20453;-72
2023/05/27 08:55:20;;;;;;;20.73;4.45;;;18.60;99.90;;;;;;5097727;28;20026;-76
2023/05/27 08:57:54;;;;;;;16.58;4.97;;;18.50;99.90;;;;;;5085668;28;20440;-72
2023/05/27 09:00:20;;;;;;;16.17;4.60;;;18.70;99.90;;;;;;5101431;28;20056;-73
2023/05/27 09:02:46;;;;;;;18.63;4.50;;;19.00;99.90;;;;;;5098376;28;20048;-71
2023/05/27 09:05:14;;;;;;;19.05;4.97;;;19.00;99.90;;;;;;5098449;28;20032;-77
2023/05/27 09:07:40;;;;;;;22.50;4.70;;;19.30;99.90;;;;;;5092764;28;20047;-74
2023/05/27 09:10:07;;;;;;;16.58;4.95;;;19.30;99.90;;;;;;5092109;28;20091;-76
2023/05/27 09:12:33;;;;;;;18.55;5.03;;;19.40;99.90;;;;;;5098468;28;20118;-76
2023/05/27 09:14:59;;;;;;;17.50;4.47;;;19.50;99.90;;;;;;5098219;28;20055;-77
2023/05/27 09:17:25;;;;;;;14.77;4.68;;;19.60;99.90;;;;;;5096182;28;20043;-79
2023/05/27 09:19:51;;;;;;;21.90;4.82;;;19.60;99.90;;;;;;5080872;28;20044;-75
2023/05/27 09:22:30;;;;;;;17.77;5.05;;;19.60;99.90;;;;;;5101271;28;20482;-73
2023/05/27 09:24:56;;;;;;;18.13;5.10;;;19.90;99.90;;;;;;5080534;28;20044;-78
2023/05/27 09:27:30;;;;;;;19.58;5.35;;;19.80;99.90;;;;;;5077848;28;20130;-77
2023/05/27 09:29:56;;;;;;;15.80;4.50;;;20.10;99.90;;;;;;5097669;28;20047;-75
2023/05/27 09:32:31;;;;;;;24.17;6.03;;;20.20;99.90;;;;;;5101905;28;20736;-77
2023/05/27 09:35:00;;;;;;;16.60;4.40;;;20.10;99.90;;;;;;5101522;28;20032;-73
2023/05/27 09:37:34;;;;;;;17.25;4.63;;;20.30;99.90;;;;;;5081078;28;20048;-74
2023/05/27 09:40:12;;;;;;;20.10;4.47;;;20.40;99.90;;;;;;5092629;28;20123;-74
2023/05/27 09:42:46;;;;;;;17.08;4.90;;;20.40;99.90;;;;;;5098134;28;20115;-77
2023/05/27 09:45:14;;;;;;;18.95;4.93;;;20.70;99.90;;;;;;5098771;28;20040;-74
2023/05/27 09:47:42;;;;;;;17.95;5.32;;;20.40;99.90;;;;;;5096366;28;20040;-73
2023/05/27 09:50:12;;;;;;;22.65;4.63;;;20.60;99.90;;;;;;5097720;28;20100;-73
2023/05/27 09:52:41;;;;;;;19.67;5.32;;;20.70;99.90;;;;;;5088101;28;20123;-76
2023/05/27 09:55:09;;;;;;;16.23;4.05;;;20.60;99.90;;;;;;5083225;28;20036;-73
2023/05/27 09:57:35;;;;;;;17.52;4.07;;;20.60;99.90;;;;;;5103931;28;20056;-72
2023/05/27 10:00:14;;;;;;;15.13;3.92;;;20.80;99.90;;;;;;5098646;28;20166;-77
2023/05/27 10:02:42;;;;;;;15.13;3.88;;;21.00;99.90;;;;;;5095747;28;20091;-76
2023/05/27 10:05:09;;;;;;;20.95;4.15;;;21.00;99.90;;;;;;5099636;28;20048;-75
2023/05/27 10:07:39;;;;;;;16.73;4.15;;;21.20;99.90;;;;;;5102335;28;20039;-77
2023/05/27 10:10:10;;;;;;;15.65;4.32;;;21.30;99.90;;;;;;5106124;28;20043;-77
2023/05/27 10:12:37;;;;;;;16.45;4.50;;;21.30;99.90;;;;;;5083311;28;20807;-79
2023/05/27 10:15:03;;;;;;;18.98;4.90;;;21.40;99.90;;;;;;5104581;28;20036;-77
2023/05/27 10:17:47;;;;;;;17.10;4.40;;;21.30;99.90;;;;;;5091672;28;20090;-76
2023/05/27 10:20:12;;;;;;;16.10;3.85;;;21.20;99.90;;;;;;5090123;28;20078;-80
2023/05/27 10:22:42;;;;;;;26.02;4.35;;;21.40;99.90;;;;;;5104847;28;20549;-72
2023/05/27 10:25:14;;;;;;;15.57;3.85;;;21.50;99.90;;;;;;5085928;28;20487;-77
2023/05/27 10:27:45;;;;;;;22.25;4.57;;;21.60;99.90;;;;;;5082315;28;20044;-79
2023/05/27 10:30:12;;;;;;;13.93;3.88;;;21.70;99.90;;;;;;5103943;28;20722;-76
2023/05/27 10:32:49;;;;;;;19.23;5.13;;;21.60;99.90;;;;;;5082764;28;20052;-76
2023/05/27 10:35:18;;;;;;;26.02;4.80;;;21.70;99.90;;;;;;5103789;28;20032;-74
2023/05/27 10:37:45;;;;;;;15.88;4.53;;;21.80;99.90;;;;;;5082479;28;20084;-74
2023/05/27 10:40:11;;;;;;;18.08;4.15;;;21.80;99.90;;;;;;5101924;28;20060;-73
2023/05/27 10:42:37;;;;;;;23.33;5.65;;;21.90;99.90;;;;;;5103862;28;20054;-76
2023/05/27 10:45:08;;;;;;;19.38;4.60;;;22.10;99.90;;;;;;5103933;28;20035;-74
2023/05/27 10:47:37;;;;;;;11.30;3.85;;;22.00;99.90;;;;;;5087880;28;20036;-72
2023/05/27 10:50:13;;;;;;;16.83;3.97;;;22.20;99.70;;;;;;5103632;28;20062;-72
2023/05/27 10:52:41;;;;;;;18.42;4.45;;;22.00;99.90;;;;;;5087659;28;20085;-72
2023/05/27 10:55:07;;;;;;;19.65;4.50;;;22.10;99.90;;;;;;5082252;28;20055;-73
2023/05/27 10:57:33;;;;;;;16.67;4.32;;;22.30;99.90;;;;;;5102463;28;20048;-73
2023/05/27 11:00:08;;;;;;;16.30;4.40;;;22.30;99.90;;;;;;5098887;28;20411;-74
2023/05/27 11:02:36;;;;;;;15.80;4.10;;;22.40;99.40;;;;;;5092261;28;20368;-73
2023/05/27 11:05:07;;;;;;;14.23;4.28;;;22.50;99.90;;;;;;5100138;28;20039;-73
2023/05/27 11:07:37;;;;;;;15.95;3.95;;;22.70;99.90;;;;;;5100910;28;20051;-73
2023/05/27 11:10:05;;;;;;;13.30;4.32;;;22.70;99.50;;;;;;5093979;28;20127;-75
2023/05/27 11:12:31;;;;;;;16.63;4.28;;;22.60;99.70;;;;;;5096293;28;20601;-73
2023/05/27 11:14:56;;;;;;;21.50;4.40;;;22.70;99.70;;;;;;5103177;28;20059;-74
2023/05/27 11:17:23;;;;;;;14.55;4.05;;;22.60;99.50;;;;;;5103130;28;20471;-75
2023/05/27 11:19:49;;;;;;;17.17;4.22;;;22.60;99.50;;;;;;5096610;28;20055;-73
2023/05/27 11:22:16;;;;;;;11.18;3.55;;;22.80;99.80;;;;;;5096020;28;20050;-72
2023/05/27 11:24:43;;;;;;;10.23;3.72;;;23.00;99.70;;;;;;5081497;28;20071;-73
2023/05/27 11:27:10;;;;;;;17.05;4.28;;;23.20;99.50;;;;;;5103225;28;20097;-73
2023/05/27 11:29:47;;;;;;;18.45;4.97;;;23.20;99.20;;;;;;5081264;28;20525;-76
2023/05/27 11:32:16;;;;;;;20.92;4.38;;;23.20;98.90;;;;;;5096244;28;20078;-71
2023/05/27 11:34:44;;;;;;;15.82;4.63;;;23.30;98.50;;;;;;5103478;28;20115;-72
2023/05/27 11:37:12;;;;;;;19.50;4.43;;;23.20;98.50;;;;;;5101014;28;20100;-74
2023/05/27 11:39:37;;;;;;;25.45;5.20;;;23.20;98.70;;;;;;5100363;28;20040;-71
2023/05/27 11:42:08;;;;;;;14.63;4.80;;;23.20;98.10;;;;;;5097431;28;20068;-72
2023/05/27 11:44:34;;;;;;;17.20;4.65;;;23.10;97.70;;;;;;5102288;28;20087;-76
2023/05/27 11:47:00;;;;;;;14.18;4.32;;;23.20;97.90;;;;;;5098389;28;20079;-75
2023/05/27 11:49:27;;;;;;;18.73;4.88;;;23.20;98.30;;;;;;5090033;28;20052;-76
2023/05/27 11:51:56;;;;;;;14.30;4.53;;;23.40;98.50;;;;;;5098873;28;20477;-76
2023/05/27 11:54:26;;;;;;;14.25;4.47;;;23.30;97.90;;;;;;5099286;28;20047;-74
2023/05/27 11:56:54;;;;;;;14.30;3.90;;;23.30;97.60;;;;;;5099530;28;20091;-75
2023/05/27 11:59:21;;;;;;;12.88;4.07;;;23.50;97.90;;;;;;5098556;28;20812;-74
2023/05/27 12:01:47;;;;;;;17.42;4.88;;;23.50;97.70;;;;;;5099032;28;20059;-75
2023/05/27 12:04:13;;;;;;;16.80;4.63;;;23.60;97.60;;;;;;5099077;28;20071;-74
2023/05/27 12:06:40;;;;;;;15.18;4.55;;;23.60;97.80;;;;;;5101125;28;20082;-76
2023/05/27 12:09:10;;;;;;;16.73;4.95;;;23.70;98.00;;;;;;5102348;28;20123;-76
2023/05/27 12:11:37;;;;;;;13.60;4.03;;;23.70;97.80;;;;;;5090744;28;20135;-76
2023/05/27 12:14:03;;;;;;;18.00;4.53;;;23.60;97.90;;;;;;5098431;28;20880;-75
2023/05/27 12:16:28;;;;;;;15.43;4.25;;;23.60;97.70;;;;;;5080380;28;20051;-75
2023/05/27 12:18:54;;;;;;;13.80;4.07;;;23.70;96.20;;;;;;5080143;28;20067;-71
2023/05/27 12:21:20;;;;;;;15.02;4.38;;;23.80;96.70;;;;;;5096284;28;20082;-82
2023/05/27 12:23:47;;;;;;;15.45;4.35;;;23.70;97.20;;;;;;5102015;28;20051;-78
2023/05/27 12:26:14;;;;;;;18.58;5.72;;;23.80;97.50;;;;;;5098821;28;20072;-77
2023/05/27 12:28:40;;;;;;;15.25;4.63;;;23.80;97.60;;;;;;5098861;28;20050;-77
2023/05/27 12:31:06;;;;;;;14.65;4.10;;;23.90;97.30;;;;;;5095749;28;20040;-76
2023/05/27 12:33:32;;;;;;;17.67;4.22;;;23.80;97.20;;;;;;5095912;28;20468;-75
2023/05/27 12:35:59;;;;;;;14.10;4.47;;;24.00;97.50;;;;;;5098181;28;20085;-77
2023/05/27 12:38:24;;;;;;;13.20;4.05;;;23.80;97.00;;;;;;5098304;28;20504;-72
2023/05/27 12:40:50;;;;;;;15.45;4.95;;;23.90;96.70;;;;;;5096852;28;20039;-78